sensor_id;sensor_type;location;lat;lon;timestamp;temperature;humidity
21085;DHT22;34247;50.064;19.970;2023-04-03T00:00:46;20.90;28.20
21085;DHT22;34247;50.064;19.970;2023-04-03T00:01:53;20.80;28.20
21085;DHT22;34247;50.064;19.970;2023-04-03T00:02:57;20.80;28.30
21085;DHT22;34247;50.064;19.970;2023-04-03T00:04:01;20.90;28.30
21085;DHT22;34247;50.064;19.970;2023-04-03T00:05:05;20.90;28.30
21085;DHT22;34247;50.064;19.970;2023-04-03T00:06:10;20.90;28.20
21085;DHT22;34247;50.064;19.970;2023-04-03T00:07:15;21.00;28.20
21085;DHT22;34247;50.064;19.970;2023-04-03T00:08:19;20.90;28.60
21085;DHT22;34247;50.064;19.970;2023-04-03T00:09:23;20.90;28.20
21085;DHT22;34247;50.064;19.970;2023-04-03T00:10:28;20.90;28.20
21085;DHT22;34247;50.064;19.970;2023-04-03T00:11:32;20.90;28.30
21085;DHT22;34247;50.064;19.970;2023-04-03T00:12:36;20.80;28.30
21085;DHT22;34247;50.064;19.970;2023-04-03T00:13:40;20.80;28.50
21085;DHT22;34247;50.064;19.970;2023-04-03T00:14:44;20.80;28.60
21085;DHT22;34247;50.064;19.970;2023-04-03T00:15:48;20.80;28.50
21085;DHT22;34247;50.064;19.970;2023-04-03T00:16:51;20.90;28.30
21085;DHT22;34247;50.064;19.970;2023-04-03T00:17:55;21.00;28.10
21085;DHT22;34247;50.064;19.970;2023-04-03T00:19:05;20.90;28.10
21085;DHT22;34247;50.064;19.970;2023-04-03T00:20:16;21.00;28.10
21085;DHT22;34247;50.064;19.970;2023-04-03T00:21:23;21.00;28.10
21085;DHT22;34247;50.064;19.970;2023-04-03T00:22:36;20.90;28.00
21085;DHT22;34247;50.064;19.970;2023-04-03T00:23:40;20.90;28.10
21085;DHT22;34247;50.064;19.970;2023-04-03T00:24:44;20.80;28.20
21085;DHT22;34247;50.064;19.970;2023-04-03T00:25:49;20.70;28.30
21085;DHT22;34247;50.064;19.970;2023-04-03T00:26:56;20.70;28.30
21085;DHT22;34247;50.064;19.970;2023-04-03T00:27:59;20.70;28.50
21085;DHT22;34247;50.064;19.970;2023-04-03T00:29:03;20.70;28.50
21085;DHT22;34247;50.064;19.970;2023-04-03T00:30:09;20.70;28.50
21085;DHT22;34247;50.064;19.970;2023-04-03T00:31:17;20.60;28.40
21085;DHT22;34247;50.064;19.970;2023-04-03T00:32:26;20.60;28.40
21085;DHT22;34247;50.064;19.970;2023-04-03T00:33:49;20.70;28.60
21085;DHT22;34247;50.064;19.970;2023-04-03T00:34:56;20.50;28.60
21085;DHT22;34247;50.064;19.970;2023-04-03T00:36:06;20.50;28.70
21085;DHT22;34247;50.064;19.970;2023-04-03T00:37:12;20.60;28.60
21085;DHT22;34247;50.064;19.970;2023-04-03T00:38:16;20.60;28.60
21085;DHT22;34247;50.064;19.970;2023-04-03T00:39:21;20.70;28.60
21085;DHT22;34247;50.064;19.970;2023-04-03T00:40:27;20.60;28.50
21085;DHT22;34247;50.064;19.970;2023-04-03T00:41:31;20.60;28.60
21085;DHT22;34247;50.064;19.970;2023-04-03T00:42:36;20.50;28.70
21085;DHT22;34247;50.064;19.970;2023-04-03T00:43:40;20.40;28.70
21085;DHT22;34247;50.064;19.970;2023-04-03T00:45:53;20.50;28.70
21085;DHT22;34247;50.064;19.970;2023-04-03T00:47:00;20.60;28.60
21085;DHT22;34247;50.064;19.970;2023-04-03T00:48:07;20.50;28.50
21085;DHT22;34247;50.064;19.970;2023-04-03T00:49:27;20.50;28.60
21085;DHT22;34247;50.064;19.970;2023-04-03T00:50:33;20.50;28.70
21085;DHT22;34247;50.064;19.970;2023-04-03T00:51:44;20.50;28.60
21085;DHT22;34247;50.064;19.970;2023-04-03T00:52:48;20.60;28.70
21085;DHT22;34247;50.064;19.970;2023-04-03T00:54:03;20.70;28.50
21085;DHT22;34247;50.064;19.970;2023-04-03T00:55:09;20.60;28.40
21085;DHT22;34247;50.064;19.970;2023-04-03T00:56:15;20.60;28.30
21085;DHT22;34247;50.064;19.970;2023-04-03T00:57:21;20.60;28.40
21085;DHT22;34247;50.064;19.970;2023-04-03T00:58:54;20.60;28.50
21085;DHT22;34247;50.064;19.970;2023-04-03T01:00:10;20.70;28.30
21085;DHT22;34247;50.064;19.970;2023-04-03T01:01:20;20.60;28.30
21085;DHT22;34247;50.064;19.970;2023-04-03T01:02:27;20.50;28.50
21085;DHT22;34247;50.064;19.970;2023-04-03T01:03:31;20.50;28.50
21085;DHT22;34247;50.064;19.970;2023-04-03T01:04:38;20.50;28.50
21085;DHT22;34247;50.064;19.970;2023-04-03T01:05:48;20.50;28.50
21085;DHT22;34247;50.064;19.970;2023-04-03T01:06:55;20.60;28.50
21085;DHT22;34247;50.064;19.970;2023-04-03T01:08:01;20.60;28.50
21085;DHT22;34247;50.064;19.970;2023-04-03T01:09:05;20.70;28.30
21085;DHT22;34247;50.064;19.970;2023-04-03T01:10:15;20.60;28.30
21085;DHT22;34247;50.064;19.970;2023-04-03T01:11:20;20.50;28.30
21085;DHT22;34247;50.064;19.970;2023-04-03T01:12:30;20.50;28.40
21085;DHT22;34247;50.064;19.970;2023-04-03T01:13:37;20.40;28.40
21085;DHT22;34247;50.064;19.970;2023-04-03T01:14:41;20.40;28.50
21085;DHT22;34247;50.064;19.970;2023-04-03T01:16:05;20.40;28.50
21085;DHT22;34247;50.064;19.970;2023-04-03T01:18:38;20.40;28.50
21085;DHT22;34247;50.064;19.970;2023-04-03T01:19:48;20.50;28.40
21085;DHT22;34247;50.064;19.970;2023-04-03T01:24:50;20.50;28.40
21085;DHT22;34247;50.064;19.970;2023-04-03T01:25:57;20.40;28.40
21085;DHT22;34247;50.064;19.970;2023-04-03T01:27:04;20.30;28.50
21085;DHT22;34247;50.064;19.970;2023-04-03T01:28:31;20.30;28.70
21085;DHT22;34247;50.064;19.970;2023-04-03T01:29:37;20.30;28.60
21085;DHT22;34247;50.064;19.970;2023-04-03T01:32:18;20.10;28.80
21085;DHT22;34247;50.064;19.970;2023-04-03T01:33:23;20.30;28.80
21085;DHT22;34247;50.064;19.970;2023-04-03T01:34:50;20.30;28.70
21085;DHT22;34247;50.064;19.970;2023-04-03T01:36:30;20.30;28.80
21085;DHT22;34247;50.064;19.970;2023-04-03T01:37:36;20.20;28.80
21085;DHT22;34247;50.064;19.970;2023-04-03T01:38:49;20.20;28.80
21085;DHT22;34247;50.064;19.970;2023-04-03T01:40:02;20.20;28.90
21085;DHT22;34247;50.064;19.970;2023-04-03T01:41:12;20.10;28.90
21085;DHT22;34247;50.064;19.970;2023-04-03T01:42:16;20.20;28.90
21085;DHT22;34247;50.064;19.970;2023-04-03T01:43:20;20.30;28.90
21085;DHT22;34247;50.064;19.970;2023-04-03T01:44:24;20.40;28.70
21085;DHT22;34247;50.064;19.970;2023-04-03T01:45:28;20.40;28.70
21085;DHT22;34247;50.064;19.970;2023-04-03T01:46:33;20.30;28.60
21085;DHT22;34247;50.064;19.970;2023-04-03T01:47:37;20.20;28.60
21085;DHT22;34247;50.064;19.970;2023-04-03T01:48:41;20.20;28.90
21085;DHT22;34247;50.064;19.970;2023-04-03T01:49:46;20.20;28.90
21085;DHT22;34247;50.064;19.970;2023-04-03T01:50:50;20.20;28.90
21085;DHT22;34247;50.064;19.970;2023-04-03T01:51:54;20.20;28.90
21085;DHT22;34247;50.064;19.970;2023-04-03T01:52:59;20.10;28.90
21085;DHT22;34247;50.064;19.970;2023-04-03T01:54:03;20.30;28.80
21085;DHT22;34247;50.064;19.970;2023-04-03T01:55:13;20.40;28.70
21085;DHT22;34247;50.064;19.970;2023-04-03T01:56:18;20.40;28.60
21085;DHT22;34247;50.064;19.970;2023-04-03T01:57:22;20.30;28.60
21085;DHT22;34247;50.064;19.970;2023-04-03T01:58:26;20.40;28.60
21085;DHT22;34247;50.064;19.970;2023-04-03T01:59:33;20.30;28.50
21085;DHT22;34247;50.064;19.970;2023-04-03T02:00:38;20.30;28.60
21085;DHT22;34247;50.064;19.970;2023-04-03T02:01:41;20.30;28.60
21085;DHT22;34247;50.064;19.970;2023-04-03T02:02:45;20.30;28.70
21085;DHT22;34247;50.064;19.970;2023-04-03T02:03:49;20.30;28.70
21085;DHT22;34247;50.064;19.970;2023-04-03T02:04:53;20.30;28.70
21085;DHT22;34247;50.064;19.970;2023-04-03T02:05:58;20.30;28.50
21085;DHT22;34247;50.064;19.970;2023-04-03T02:07:04;20.30;28.50
21085;DHT22;34247;50.064;19.970;2023-04-03T02:08:08;20.30;28.60
21085;DHT22;34247;50.064;19.970;2023-04-03T02:09:21;20.40;28.70
21085;DHT22;34247;50.064;19.970;2023-04-03T02:10:25;20.40;28.50
21085;DHT22;34247;50.064;19.970;2023-04-03T02:11:31;20.40;28.30
21085;DHT22;34247;50.064;19.970;2023-04-03T02:12:35;20.30;28.50
21085;DHT22;34247;50.064;19.970;2023-04-03T02:13:39;20.40;28.60
21085;DHT22;34247;50.064;19.970;2023-04-03T02:14:47;20.40;28.50
21085;DHT22;34247;50.064;19.970;2023-04-03T02:15:51;20.40;28.40
21085;DHT22;34247;50.064;19.970;2023-04-03T02:16:55;20.50;28.30
21085;DHT22;34247;50.064;19.970;2023-04-03T02:17:59;20.40;28.30
21085;DHT22;34247;50.064;19.970;2023-04-03T02:19:03;20.40;28.40
21085;DHT22;34247;50.064;19.970;2023-04-03T02:20:08;20.40;28.20
21085;DHT22;34247;50.064;19.970;2023-04-03T02:21:13;20.40;28.20
21085;DHT22;34247;50.064;19.970;2023-04-03T02:22:17;20.40;28.20
21085;DHT22;34247;50.064;19.970;2023-04-03T02:23:36;20.40;28.30
21085;DHT22;34247;50.064;19.970;2023-04-03T02:24:40;20.40;28.20
21085;DHT22;34247;50.064;19.970;2023-04-03T02:25:45;20.30;28.20
21085;DHT22;34247;50.064;19.970;2023-04-03T02:26:52;20.30;28.40
21085;DHT22;34247;50.064;19.970;2023-04-03T02:27:56;20.30;28.40
21085;DHT22;34247;50.064;19.970;2023-04-03T02:29:00;20.20;28.40
21085;DHT22;34247;50.064;19.970;2023-04-03T02:30:07;20.30;28.60
21085;DHT22;34247;50.064;19.970;2023-04-03T02:31:13;20.30;28.40
21085;DHT22;34247;50.064;19.970;2023-04-03T02:32:17;20.30;28.40
21085;DHT22;34247;50.064;19.970;2023-04-03T02:33:21;20.20;28.50
21085;DHT22;34247;50.064;19.970;2023-04-03T02:34:25;20.20;28.60
21085;DHT22;34247;50.064;19.970;2023-04-03T02:35:28;20.10;28.60
21085;DHT22;34247;50.064;19.970;2023-04-03T02:36:32;20.10;28.60
21085;DHT22;34247;50.064;19.970;2023-04-03T02:37:37;20.20;28.70
21085;DHT22;34247;50.064;19.970;2023-04-03T02:38:42;20.20;28.70
21085;DHT22;34247;50.064;19.970;2023-04-03T02:39:46;20.30;28.60
21085;DHT22;34247;50.064;19.970;2023-04-03T02:40:50;20.30;28.50
21085;DHT22;34247;50.064;19.970;2023-04-03T02:42:00;20.30;28.60
21085;DHT22;34247;50.064;19.970;2023-04-03T02:43:06;20.30;28.60
21085;DHT22;34247;50.064;19.970;2023-04-03T02:44:16;20.20;28.60
21085;DHT22;34247;50.064;19.970;2023-04-03T02:45:22;20.20;28.60
21085;DHT22;34247;50.064;19.970;2023-04-03T02:46:26;20.20;28.50
21085;DHT22;34247;50.064;19.970;2023-04-03T02:47:31;20.20;28.50
21085;DHT22;34247;50.064;19.970;2023-04-03T02:48:36;20.30;28.60
21085;DHT22;34247;50.064;19.970;2023-04-03T02:49:43;20.30;28.50
21085;DHT22;34247;50.064;19.970;2023-04-03T02:50:49;20.40;28.50
21085;DHT22;34247;50.064;19.970;2023-04-03T02:51:54;20.30;28.50
21085;DHT22;34247;50.064;19.970;2023-04-03T02:52:58;20.30;28.50
21085;DHT22;34247;50.064;19.970;2023-04-03T02:54:02;20.30;28.40
21085;DHT22;34247;50.064;19.970;2023-04-03T02:55:16;20.20;28.40
21085;DHT22;34247;50.064;19.970;2023-04-03T02:56:20;20.30;28.50
21085;DHT22;34247;50.064;19.970;2023-04-03T02:57:25;20.30;28.30
21085;DHT22;34247;50.064;19.970;2023-04-03T02:58:29;20.30;28.40
21085;DHT22;34247;50.064;19.970;2023-04-03T02:59:33;20.30;28.40
21085;DHT22;34247;50.064;19.970;2023-04-03T03:00:37;20.20;28.40
21085;DHT22;34247;50.064;19.970;2023-04-03T03:01:41;20.20;28.50
21085;DHT22;34247;50.064;19.970;2023-04-03T03:02:45;20.30;28.30
21085;DHT22;34247;50.064;19.970;2023-04-03T03:03:49;20.20;28.20
21085;DHT22;34247;50.064;19.970;2023-04-03T03:04:53;20.20;28.30
21085;DHT22;34247;50.064;19.970;2023-04-03T03:06:09;20.10;28.30
21085;DHT22;34247;50.064;19.970;2023-04-03T03:07:15;20.10;28.40
21085;DHT22;34247;50.064;19.970;2023-04-03T03:08:19;20.00;28.50
21085;DHT22;34247;50.064;19.970;2023-04-03T03:09:23;20.10;28.40
21085;DHT22;34247;50.064;19.970;2023-04-03T03:10:27;20.20;28.30
21085;DHT22;34247;50.064;19.970;2023-04-03T03:11:31;20.10;28.40
21085;DHT22;34247;50.064;19.970;2023-04-03T03:12:35;20.10;28.30
21085;DHT22;34247;50.064;19.970;2023-04-03T03:13:39;20.10;28.40
21085;DHT22;34247;50.064;19.970;2023-04-03T03:14:43;20.10;28.30
21085;DHT22;34247;50.064;19.970;2023-04-03T03:15:47;20.20;28.50
21085;DHT22;34247;50.064;19.970;2023-04-03T03:16:51;20.10;28.40
21085;DHT22;34247;50.064;19.970;2023-04-03T03:17:57;20.10;28.40
21085;DHT22;34247;50.064;19.970;2023-04-03T03:19:01;20.20;28.40
21085;DHT22;34247;50.064;19.970;2023-04-03T03:20:06;20.20;28.40
21085;DHT22;34247;50.064;19.970;2023-04-03T03:21:11;20.10;28.40
21085;DHT22;34247;50.064;19.970;2023-04-03T03:22:16;20.10;28.40
21085;DHT22;34247;50.064;19.970;2023-04-03T03:23:21;20.20;28.50
21085;DHT22;34247;50.064;19.970;2023-04-03T03:24:44;20.10;28.50
21085;DHT22;34247;50.064;19.970;2023-04-03T03:25:48;20.10;28.50
21085;DHT22;34247;50.064;19.970;2023-04-03T03:26:52;20.20;28.30
21085;DHT22;34247;50.064;19.970;2023-04-03T03:27:56;20.10;28.30
21085;DHT22;34247;50.064;19.970;2023-04-03T03:29:00;20.10;28.30
21085;DHT22;34247;50.064;19.970;2023-04-03T03:30:04;20.10;28.40
21085;DHT22;34247;50.064;19.970;2023-04-03T03:31:09;20.10;28.50
21085;DHT22;34247;50.064;19.970;2023-04-03T03:32:16;20.00;28.50
21085;DHT22;34247;50.064;19.970;2023-04-03T03:33:20;20.00;29.10
21085;DHT22;34247;50.064;19.970;2023-04-03T03:34:24;20.00;28.60
21085;DHT22;34247;50.064;19.970;2023-04-03T03:35:28;20.10;28.60
21085;DHT22;34247;50.064;19.970;2023-04-03T03:36:32;20.20;28.40
21085;DHT22;34247;50.064;19.970;2023-04-03T03:37:36;20.20;28.20
21085;DHT22;34247;50.064;19.970;2023-04-03T03:38:40;20.20;28.10
21085;DHT22;34247;50.064;19.970;2023-04-03T03:39:44;20.40;27.90
21085;DHT22;34247;50.064;19.970;2023-04-03T03:40:49;20.30;28.00
21085;DHT22;34247;50.064;19.970;2023-04-03T03:41:54;20.40;27.80
21085;DHT22;34247;50.064;19.970;2023-04-03T03:42:57;20.40;27.90
21085;DHT22;34247;50.064;19.970;2023-04-03T03:44:01;20.40;28.00
21085;DHT22;34247;50.064;19.970;2023-04-03T03:45:15;20.40;27.90
21085;DHT22;34247;50.064;19.970;2023-04-03T03:46:19;20.30;28.00
21085;DHT22;34247;50.064;19.970;2023-04-03T03:47:23;20.20;28.00
21085;DHT22;34247;50.064;19.970;2023-04-03T03:48:40;20.10;28.10
21085;DHT22;34247;50.064;19.970;2023-04-03T03:49:44;20.10;28.30
21085;DHT22;34247;50.064;19.970;2023-04-03T03:50:48;20.00;28.30
21085;DHT22;34247;50.064;19.970;2023-04-03T03:51:56;20.00;28.30
21085;DHT22;34247;50.064;19.970;2023-04-03T03:53:03;20.00;28.50
21085;DHT22;34247;50.064;19.970;2023-04-03T03:54:07;20.10;28.30
21085;DHT22;34247;50.064;19.970;2023-04-03T03:55:11;20.20;28.00
21085;DHT22;34247;50.064;19.970;2023-04-03T03:56:19;20.30;27.80
21085;DHT22;34247;50.064;19.970;2023-04-03T03:57:24;20.40;27.60
21085;DHT22;34247;50.064;19.970;2023-04-03T03:58:30;20.30;27.70
21085;DHT22;34247;50.064;19.970;2023-04-03T03:59:34;20.20;27.70
21085;DHT22;34247;50.064;19.970;2023-04-03T04:00:38;20.30;27.80
21085;DHT22;34247;50.064;19.970;2023-04-03T04:01:42;20.20;27.60
21085;DHT22;34247;50.064;19.970;2023-04-03T04:02:46;20.20;27.60
21085;DHT22;34247;50.064;19.970;2023-04-03T04:03:50;20.20;27.80
21085;DHT22;34247;50.064;19.970;2023-04-03T04:05:00;20.10;27.80
21085;DHT22;34247;50.064;19.970;2023-04-03T04:06:04;20.10;28.00
21085;DHT22;34247;50.064;19.970;2023-04-03T04:07:11;20.20;27.80
21085;DHT22;34247;50.064;19.970;2023-04-03T04:08:14;20.10;27.80
21085;DHT22;34247;50.064;19.970;2023-04-03T04:09:34;20.10;27.80
21085;DHT22;34247;50.064;19.970;2023-04-03T04:10:38;20.10;27.90
21085;DHT22;34247;50.064;19.970;2023-04-03T04:11:42;20.10;27.90
21085;DHT22;34247;50.064;19.970;2023-04-03T04:12:46;20.10;27.90
21085;DHT22;34247;50.064;19.970;2023-04-03T04:13:52;20.10;27.90
21085;DHT22;34247;50.064;19.970;2023-04-03T04:14:56;20.10;27.90
21085;DHT22;34247;50.064;19.970;2023-04-03T04:16:07;20.10;27.90
21085;DHT22;34247;50.064;19.970;2023-04-03T04:17:11;20.10;27.90
21085;DHT22;34247;50.064;19.970;2023-04-03T04:18:19;20.00;28.00
21085;DHT22;34247;50.064;19.970;2023-04-03T04:19:24;20.00;28.10
21085;DHT22;34247;50.064;19.970;2023-04-03T04:20:28;20.00;28.20
21085;DHT22;34247;50.064;19.970;2023-04-03T04:21:32;19.90;28.10
21085;DHT22;34247;50.064;19.970;2023-04-03T04:22:35;19.90;28.10
21085;DHT22;34247;50.064;19.970;2023-04-03T04:23:44;19.90;28.20
21085;DHT22;34247;50.064;19.970;2023-04-03T04:24:48;19.80;28.20
21085;DHT22;34247;50.064;19.970;2023-04-03T04:25:52;19.90;28.30
21085;DHT22;34247;50.064;19.970;2023-04-03T04:26:57;20.10;28.00
21085;DHT22;34247;50.064;19.970;2023-04-03T04:28:01;20.00;28.00
21085;DHT22;34247;50.064;19.970;2023-04-03T04:29:05;20.10;28.00
21085;DHT22;34247;50.064;19.970;2023-04-03T04:30:10;19.90;28.00
21085;DHT22;34247;50.064;19.970;2023-04-03T04:31:14;19.90;28.10
21085;DHT22;34247;50.064;19.970;2023-04-03T04:32:18;19.80;28.10
21085;DHT22;34247;50.064;19.970;2023-04-03T04:33:22;19.80;28.20
21085;DHT22;34247;50.064;19.970;2023-04-03T04:34:26;19.80;28.20
21085;DHT22;34247;50.064;19.970;2023-04-03T04:35:34;19.70;28.10
21085;DHT22;34247;50.064;19.970;2023-04-03T04:36:39;19.80;28.10
21085;DHT22;34247;50.064;19.970;2023-04-03T04:37:43;19.80;28.00
21085;DHT22;34247;50.064;19.970;2023-04-03T04:38:51;19.80;28.10
21085;DHT22;34247;50.064;19.970;2023-04-03T04:40:02;19.90;28.10
21085;DHT22;34247;50.064;19.970;2023-04-03T04:41:15;20.00;27.80
21085;DHT22;34247;50.064;19.970;2023-04-03T04:42:22;19.90;27.80
21085;DHT22;34247;50.064;19.970;2023-04-03T04:43:27;19.90;27.90
21085;DHT22;34247;50.064;19.970;2023-04-03T04:44:31;19.90;28.00
21085;DHT22;34247;50.064;19.970;2023-04-03T04:45:34;19.90;27.90
21085;DHT22;34247;50.064;19.970;2023-04-03T04:46:38;20.00;27.60
21085;DHT22;34247;50.064;19.970;2023-04-03T04:47:43;19.80;27.70
21085;DHT22;34247;50.064;19.970;2023-04-03T04:48:48;19.80;27.90
21085;DHT22;34247;50.064;19.970;2023-04-03T04:49:52;19.90;27.90
21085;DHT22;34247;50.064;19.970;2023-04-03T04:50:56;19.70;27.90
21085;DHT22;34247;50.064;19.970;2023-04-03T04:51:59;19.70;28.10
21085;DHT22;34247;50.064;19.970;2023-04-03T04:53:04;19.70;28.10
21085;DHT22;34247;50.064;19.970;2023-04-03T04:54:07;19.70;27.90
21085;DHT22;34247;50.064;19.970;2023-04-03T04:55:11;19.80;27.90
21085;DHT22;34247;50.064;19.970;2023-04-03T04:56:15;20.00;27.70
21085;DHT22;34247;50.064;19.970;2023-04-03T04:57:19;19.80;27.80
21085;DHT22;34247;50.064;19.970;2023-04-03T04:58:34;19.80;27.80
21085;DHT22;34247;50.064;19.970;2023-04-03T04:59:48;19.80;27.90
21085;DHT22;34247;50.064;19.970;2023-04-03T05:01:00;19.80;28.00
21085;DHT22;34247;50.064;19.970;2023-04-03T05:02:05;19.90;27.70
21085;DHT22;34247;50.064;19.970;2023-04-03T05:03:09;20.00;27.60
21085;DHT22;34247;50.064;19.970;2023-04-03T05:04:16;20.00;27.60
21085;DHT22;34247;50.064;19.970;2023-04-03T05:05:21;20.00;27.60
21085;DHT22;34247;50.064;19.970;2023-04-03T05:06:26;19.90;27.70
21085;DHT22;34247;50.064;19.970;2023-04-03T05:07:29;19.90;27.60
21085;DHT22;34247;50.064;19.970;2023-04-03T05:08:33;19.90;27.80
21085;DHT22;34247;50.064;19.970;2023-04-03T05:09:37;20.00;27.80
21085;DHT22;34247;50.064;19.970;2023-04-03T05:10:41;19.90;28.10
21085;DHT22;34247;50.064;19.970;2023-04-03T05:11:47;19.80;27.70
21085;DHT22;34247;50.064;19.970;2023-04-03T05:12:51;19.80;27.90
21085;DHT22;34247;50.064;19.970;2023-04-03T05:13:55;19.80;27.90
21085;DHT22;34247;50.064;19.970;2023-04-03T05:14:58;19.90;27.60
21085;DHT22;34247;50.064;19.970;2023-04-03T05:16:03;19.80;27.60
21085;DHT22;34247;50.064;19.970;2023-04-03T05:17:07;19.70;27.80
21085;DHT22;34247;50.064;19.970;2023-04-03T05:18:14;19.70;27.90
21085;DHT22;34247;50.064;19.970;2023-04-03T05:19:18;19.70;27.90
21085;DHT22;34247;50.064;19.970;2023-04-03T05:20:23;19.70;27.90
21085;DHT22;34247;50.064;19.970;2023-04-03T05:21:27;19.60;28.00
21085;DHT22;34247;50.064;19.970;2023-04-03T05:22:35;19.50;28.10
21085;DHT22;34247;50.064;19.970;2023-04-03T05:23:39;19.40;28.20
21085;DHT22;34247;50.064;19.970;2023-04-03T05:24:43;19.40;28.30
21085;DHT22;34247;50.064;19.970;2023-04-03T05:25:46;19.40;28.50
21085;DHT22;34247;50.064;19.970;2023-04-03T05:26:52;19.40;28.50
21085;DHT22;34247;50.064;19.970;2023-04-03T05:27:55;19.50;28.40
21085;DHT22;34247;50.064;19.970;2023-04-03T05:28:59;19.40;28.30
21085;DHT22;34247;50.064;19.970;2023-04-03T05:30:03;19.40;28.50
21085;DHT22;34247;50.064;19.970;2023-04-03T05:31:07;19.40;28.60
21085;DHT22;34247;50.064;19.970;2023-04-03T05:32:11;19.40;28.60
21085;DHT22;34247;50.064;19.970;2023-04-03T05:33:15;19.50;28.80
21085;DHT22;34247;50.064;19.970;2023-04-03T05:34:19;19.40;28.60
21085;DHT22;34247;50.064;19.970;2023-04-03T05:35:23;19.40;28.70
21085;DHT22;34247;50.064;19.970;2023-04-03T05:36:27;19.40;29.20
21085;DHT22;34247;50.064;19.970;2023-04-03T05:37:31;19.40;28.70
21085;DHT22;34247;50.064;19.970;2023-04-03T05:38:35;19.30;28.70
21085;DHT22;34247;50.064;19.970;2023-04-03T05:39:38;19.50;28.40
21085;DHT22;34247;50.064;19.970;2023-04-03T05:40:43;19.50;28.30
21085;DHT22;34247;50.064;19.970;2023-04-03T05:41:47;19.60;28.30
21085;DHT22;34247;50.064;19.970;2023-04-03T05:42:51;19.50;28.10
21085;DHT22;34247;50.064;19.970;2023-04-03T05:43:56;19.60;28.20
21085;DHT22;34247;50.064;19.970;2023-04-03T05:45:00;19.40;28.10
21085;DHT22;34247;50.064;19.970;2023-04-03T05:46:08;19.40;28.30
21085;DHT22;34247;50.064;19.970;2023-04-03T05:47:17;19.50;27.90
21085;DHT22;34247;50.064;19.970;2023-04-03T05:48:21;19.60;28.00
21085;DHT22;34247;50.064;19.970;2023-04-03T05:49:28;19.50;27.80
21085;DHT22;34247;50.064;19.970;2023-04-03T05:50:32;19.50;27.60
21085;DHT22;34247;50.064;19.970;2023-04-03T05:51:36;19.50;27.80
21085;DHT22;34247;50.064;19.970;2023-04-03T05:52:44;19.50;27.70
21085;DHT22;34247;50.064;19.970;2023-04-03T05:54:27;19.70;27.30
21085;DHT22;34247;50.064;19.970;2023-04-03T05:55:33;19.60;27.50
21085;DHT22;34247;50.064;19.970;2023-04-03T05:56:39;19.80;27.40
21085;DHT22;34247;50.064;19.970;2023-04-03T05:57:43;19.70;27.30
21085;DHT22;34247;50.064;19.970;2023-04-03T05:58:47;19.70;27.30
21085;DHT22;34247;50.064;19.970;2023-04-03T05:59:51;19.70;27.10
21085;DHT22;34247;50.064;19.970;2023-04-03T06:00:56;19.70;27.30
21085;DHT22;34247;50.064;19.970;2023-04-03T06:02:00;19.90;27.30
21085;DHT22;34247;50.064;19.970;2023-04-03T06:03:06;19.80;27.30
21085;DHT22;34247;50.064;19.970;2023-04-03T06:04:11;19.60;27.40
21085;DHT22;34247;50.064;19.970;2023-04-03T06:05:19;19.70;27.50
21085;DHT22;34247;50.064;19.970;2023-04-03T06:06:24;19.80;27.30
21085;DHT22;34247;50.064;19.970;2023-04-03T06:07:28;19.90;27.30
21085;DHT22;34247;50.064;19.970;2023-04-03T06:08:32;19.80;27.20
21085;DHT22;34247;50.064;19.970;2023-04-03T06:09:37;19.80;27.30
21085;DHT22;34247;50.064;19.970;2023-04-03T06:10:44;19.80;28.00
21085;DHT22;34247;50.064;19.970;2023-04-03T06:11:49;19.90;27.50
21085;DHT22;34247;50.064;19.970;2023-04-03T06:12:53;19.80;27.40
21085;DHT22;34247;50.064;19.970;2023-04-03T06:13:59;19.60;27.40
21085;DHT22;34247;50.064;19.970;2023-04-03T06:15:08;19.60;27.60
21085;DHT22;34247;50.064;19.970;2023-04-03T06:16:30;19.60;27.70
21085;DHT22;34247;50.064;19.970;2023-04-03T06:17:34;19.50;27.70
21085;DHT22;34247;50.064;19.970;2023-04-03T06:18:39;19.50;27.80
21085;DHT22;34247;50.064;19.970;2023-04-03T06:19:45;19.50;28.00
21085;DHT22;34247;50.064;19.970;2023-04-03T06:20:49;19.50;27.90
21085;DHT22;34247;50.064;19.970;2023-04-03T06:21:56;19.60;27.20
21085;DHT22;34247;50.064;19.970;2023-04-03T06:23:00;19.60;27.10
21085;DHT22;34247;50.064;19.970;2023-04-03T06:24:08;19.80;26.60
21085;DHT22;34247;50.064;19.970;2023-04-03T06:25:13;19.70;26.60
21085;DHT22;34247;50.064;19.970;2023-04-03T06:26:17;19.70;26.70
21085;DHT22;34247;50.064;19.970;2023-04-03T06:27:21;19.80;26.40
21085;DHT22;34247;50.064;19.970;2023-04-03T06:28:26;19.80;26.40
21085;DHT22;34247;50.064;19.970;2023-04-03T06:29:30;19.60;26.50
21085;DHT22;34247;50.064;19.970;2023-04-03T06:30:34;19.60;26.50
21085;DHT22;34247;50.064;19.970;2023-04-03T06:31:39;19.60;26.60
21085;DHT22;34247;50.064;19.970;2023-04-03T06:32:42;19.60;26.70
21085;DHT22;34247;50.064;19.970;2023-04-03T06:33:46;19.50;26.70
21085;DHT22;34247;50.064;19.970;2023-04-03T06:34:50;19.50;26.70
21085;DHT22;34247;50.064;19.970;2023-04-03T06:35:59;19.50;26.90
21085;DHT22;34247;50.064;19.970;2023-04-03T06:37:10;19.50;26.80
21085;DHT22;34247;50.064;19.970;2023-04-03T06:38:20;19.40;26.80
21085;DHT22;34247;50.064;19.970;2023-04-03T06:39:24;19.50;26.60
21085;DHT22;34247;50.064;19.970;2023-04-03T06:40:28;19.60;26.50
21085;DHT22;34247;50.064;19.970;2023-04-03T06:41:32;19.60;26.40
21085;DHT22;34247;50.064;19.970;2023-04-03T06:42:39;19.60;26.40
21085;DHT22;34247;50.064;19.970;2023-04-03T06:43:45;19.50;26.40
21085;DHT22;34247;50.064;19.970;2023-04-03T06:44:54;19.50;26.10
21085;DHT22;34247;50.064;19.970;2023-04-03T06:46:03;19.60;26.00
21085;DHT22;34247;50.064;19.970;2023-04-03T06:47:11;19.50;26.10
21085;DHT22;34247;50.064;19.970;2023-04-03T06:48:19;19.50;26.20
21085;DHT22;34247;50.064;19.970;2023-04-03T06:49:27;19.50;26.10
21085;DHT22;34247;50.064;19.970;2023-04-03T06:50:32;19.60;26.10
21085;DHT22;34247;50.064;19.970;2023-04-03T06:51:36;19.50;26.00
21085;DHT22;34247;50.064;19.970;2023-04-03T06:52:41;19.60;25.90
21085;DHT22;34247;50.064;19.970;2023-04-03T06:53:48;19.50;25.90
21085;DHT22;34247;50.064;19.970;2023-04-03T06:54:54;19.50;26.10
21085;DHT22;34247;50.064;19.970;2023-04-03T06:56:01;19.50;26.10
21085;DHT22;34247;50.064;19.970;2023-04-03T06:57:04;19.50;26.00
21085;DHT22;34247;50.064;19.970;2023-04-03T06:58:08;19.50;26.10
21085;DHT22;34247;50.064;19.970;2023-04-03T06:59:12;19.60;25.70